createdAt,value
2023-02-16T00:00:43.098Z,6.90
2023-02-16T00:03:17.943Z,7.70
2023-02-16T00:05:46.595Z,6.60
2023-02-16T00:08:15.071Z,6.90
2023-02-16T00:11:03.822Z,5.90
2023-02-16T00:13:53.599Z,6.17
2023-02-16T00:16:25.263Z,6.43
2023-02-16T00:18:54.286Z,5.93
2023-02-16T00:21:23.254Z,6.07
2023-02-16T00:23:51.734Z,6.63
2023-02-16T00:26:28.897Z,6.20
2023-02-16T00:28:59.897Z,5.53
2023-02-16T00:31:33.070Z,6.00
2023-02-16T00:34:23.328Z,6.37
2023-02-16T00:36:51.724Z,4.70
2023-02-16T00:39:20.162Z,5.67
2023-02-16T00:41:52.398Z,5.60
2023-02-16T00:44:46.262Z,4.53
2023-02-16T00:47:20.855Z,5.03
2023-02-16T00:49:54.939Z,5.07
2023-02-16T00:52:39.895Z,5.67
2023-02-16T00:55:13.970Z,5.10
2023-02-16T00:57:52.068Z,4.80
2023-02-16T01:00:40.857Z,5.40
2023-02-16T01:03:14.230Z,5.80
2023-02-16T01:05:43.025Z,5.53
2023-02-16T01:08:32.880Z,5.23
2023-02-16T01:11:13.447Z,5.57
2023-02-16T01:13:52.818Z,5.33
2023-02-16T01:16:24.354Z,6.30
2023-02-16T01:18:54.067Z,5.70
2023-02-16T01:21:22.800Z,5.47
2023-02-16T01:23:51.205Z,5.37
2023-02-16T01:26:21.031Z,7.17
2023-02-16T01:28:50.033Z,7.27
2023-02-16T01:31:19.261Z,6.87
2023-02-16T01:33:47.724Z,7.93
2023-02-16T01:36:45.919Z,7.10
2023-02-16T01:39:21.727Z,7.33
2023-02-16T01:42:09.583Z,7.37
2023-02-16T01:44:52.325Z,8.40
2023-02-16T01:47:36.030Z,9.33
2023-02-16T01:50:25.967Z,8.40
2023-02-16T01:53:05.067Z,10.23
2023-02-16T01:55:39.509Z,11.13
2023-02-16T01:58:30.909Z,10.80
2023-02-16T02:00:59.884Z,12.10
2023-02-16T02:03:52.592Z,11.50
2023-02-16T02:06:39.287Z,10.05
2023-02-16T02:09:50.562Z,10.77
2023-02-16T02:12:44.606Z,11.15
2023-02-16T02:15:15.026Z,10.50
2023-02-16T02:17:43.405Z,10.95
2023-02-16T02:20:51.747Z,10.13
2023-02-16T02:23:46.532Z,10.18
2023-02-16T02:26:39.036Z,11.27
2023-02-16T02:29:19.597Z,11.27
2023-02-16T02:31:54.118Z,11.55
2023-02-16T02:34:47.061Z,11.65
2023-02-16T02:37:33.129Z,12.52
2023-02-16T02:40:09.497Z,14.43
2023-02-16T02:43:14.673Z,12.32
2023-02-16T02:45:48.974Z,18.10
2023-02-16T02:48:17.525Z,14.18
2023-02-16T02:51:09.287Z,13.55
2023-02-16T02:53:48.020Z,12.93
2023-02-16T02:56:37.507Z,13.43
2023-02-16T02:59:28.760Z,14.95
2023-02-16T03:02:01.270Z,16.13
2023-02-16T03:04:32.251Z,13.95
2023-02-16T03:07:03.099Z,13.18
2023-02-16T03:09:31.564Z,15.35
2023-02-16T03:12:19.133Z,14.25
2023-02-16T03:14:54.662Z,14.10
2023-02-16T03:17:45.999Z,15.82
2023-02-16T03:20:35.831Z,12.82
2023-02-16T03:23:24.640Z,15.10
2023-02-16T03:26:12.596Z,13.80
2023-02-16T03:29:02.491Z,15.70
2023-02-16T03:31:35.436Z,16.17
2023-02-16T03:34:04.630Z,16.73
2023-02-16T03:36:36.339Z,15.05
2023-02-16T03:39:06.506Z,15.52
2023-02-16T03:41:44.886Z,15.98
2023-02-16T03:44:13.223Z,19.95
2023-02-16T03:46:41.642Z,18.45
2023-02-16T03:49:10.073Z,17.65
2023-02-16T03:51:38.744Z,18.83
2023-02-16T03:54:07.162Z,17.13
2023-02-16T03:56:35.572Z,18.00
2023-02-16T03:59:04.265Z,17.50
2023-02-16T04:01:32.627Z,18.80
2023-02-16T04:04:01.104Z,18.15
2023-02-16T04:06:29.595Z,19.40
2023-02-16T04:08:57.989Z,20.27
2023-02-16T04:11:44.950Z,19.58
2023-02-16T04:14:13.897Z,18.50
2023-02-16T04:16:42.271Z,19.55
2023-02-16T04:19:13.809Z,20.27
2023-02-16T04:21:43.725Z,19.95
2023-02-16T04:24:12.135Z,19.52
2023-02-16T04:26:40.507Z,19.92
2023-02-16T04:29:08.879Z,18.08
2023-02-16T04:31:37.383Z,19.35
2023-02-16T04:34:05.846Z,18.23
2023-02-16T04:36:35.148Z,19.13
2023-02-16T04:39:03.528Z,18.00
2023-02-16T04:41:32.222Z,19.65
2023-02-16T04:44:00.622Z,19.92
2023-02-16T04:46:29.010Z,21.70
2023-02-16T04:48:57.717Z,23.55
2023-02-16T04:51:26.104Z,19.52
2023-02-16T04:53:54.430Z,22.80
2023-02-16T04:56:22.908Z,23.90
2023-02-16T04:58:51.250Z,23.23
2023-02-16T05:01:21.474Z,26.15
2023-02-16T05:03:50.417Z,30.67
2023-02-16T05:06:19.152Z,31.88
2023-02-16T05:08:47.886Z,29.23
2023-02-16T05:11:34.878Z,29.33
2023-02-16T05:14:21.631Z,34.22
2023-02-16T05:16:50.189Z,31.98
2023-02-16T05:19:18.530Z,30.77
2023-02-16T05:21:46.951Z,28.88
2023-02-16T05:24:15.324Z,24.65
2023-02-16T05:26:43.690Z,24.85
2023-02-16T05:29:12.036Z,24.80
2023-02-16T05:31:40.548Z,22.25
2023-02-16T05:34:09.009Z,24.15
2023-02-16T05:36:37.370Z,28.10
2023-02-16T05:39:06.005Z,33.63
2023-02-16T05:41:34.467Z,27.08
2023-02-16T05:44:05.342Z,26.98
2023-02-16T05:46:36.177Z,27.58
2023-02-16T05:49:06.599Z,24.13
2023-02-16T05:51:35.653Z,36.22
2023-02-16T05:54:04.665Z,35.00
2023-02-16T05:56:33.505Z,39.65
2023-02-16T05:59:02.326Z,35.83
2023-02-16T06:01:30.896Z,44.63
2023-02-16T06:03:59.295Z,51.65
2023-02-16T06:06:27.838Z,43.55
2023-02-16T06:08:56.184Z,41.53
2023-02-16T06:11:36.749Z,40.58
2023-02-16T06:14:13.767Z,38.50
2023-02-16T06:16:44.142Z,37.53
2023-02-16T06:19:13.317Z,31.05
2023-02-16T06:21:42.872Z,32.20
2023-02-16T06:24:13.249Z,32.38
2023-02-16T06:26:41.713Z,30.20
2023-02-16T06:29:11.343Z,32.55
2023-02-16T06:31:39.926Z,33.28
2023-02-16T06:34:08.607Z,31.67
2023-02-16T06:36:37.029Z,31.27
2023-02-16T06:39:05.459Z,30.75
2023-02-16T06:41:38.539Z,37.10
2023-02-16T06:44:10.239Z,35.75
2023-02-16T06:46:38.675Z,31.80
2023-02-16T06:49:07.265Z,33.70
2023-02-16T06:51:35.722Z,36.35
2023-02-16T06:54:04.085Z,37.03
2023-02-16T06:56:32.458Z,38.67
2023-02-16T06:59:00.892Z,38.83
2023-02-16T07:01:29.735Z,33.40
2023-02-16T07:03:59.253Z,34.88
2023-02-16T07:06:30.180Z,37.08
2023-02-16T07:08:58.689Z,34.15
2023-02-16T07:11:27.070Z,41.97
2023-02-16T07:13:56.082Z,39.90
2023-02-16T07:16:24.603Z,38.70
2023-02-16T07:18:53.033Z,36.95
2023-02-16T07:21:21.446Z,38.15
2023-02-16T07:23:49.797Z,39.10
2023-02-16T07:26:18.188Z,36.95
2023-02-16T07:28:46.689Z,34.20
2023-02-16T07:31:19.205Z,31.73
2023-02-16T07:33:47.753Z,30.00
2023-02-16T07:36:16.327Z,34.95
2023-02-16T07:38:45.048Z,37.65
2023-02-16T07:41:14.177Z,33.15
2023-02-16T07:43:43.668Z,33.03
2023-02-16T07:46:12.559Z,32.67
2023-02-16T07:48:41.028Z,32.40
2023-02-16T07:51:09.508Z,29.45
2023-02-16T07:53:37.868Z,35.47
2023-02-16T07:56:06.501Z,34.95
2023-02-16T07:58:34.843Z,31.95
2023-02-16T08:01:13.084Z,35.08
2023-02-16T08:03:43.218Z,30.70
2023-02-16T08:06:11.631Z,29.48
2023-02-16T08:08:40.248Z,28.25
2023-02-16T08:11:13.937Z,28.80
2023-02-16T08:13:42.454Z,28.98
2023-02-16T08:16:13.328Z,28.13
2023-02-16T08:18:44.605Z,26.60
2023-02-16T08:21:21.316Z,25.38
2023-02-16T08:24:01.817Z,25.88
2023-02-16T08:26:34.761Z,23.63
2023-02-16T08:29:03.517Z,23.90
2023-02-16T08:31:33.399Z,22.80
2023-02-16T08:34:03.949Z,22.42
2023-02-16T08:36:35.333Z,21.30
2023-02-16T08:39:20.814Z,19.38
2023-02-16T08:41:50.689Z,25.02
2023-02-16T08:44:21.292Z,28.17
2023-02-16T08:46:51.249Z,19.70
2023-02-16T08:49:20.939Z,20.25
2023-02-16T08:51:55.491Z,19.80
2023-02-16T08:54:31.097Z,22.23
2023-02-16T08:57:00.737Z,22.30
2023-02-16T08:59:29.622Z,20.80
2023-02-16T09:01:58.994Z,18.35
2023-02-16T09:04:29.939Z,18.42
2023-02-16T09:06:59.627Z,19.60
2023-02-16T09:09:28.413Z,20.67
2023-02-16T09:11:58.467Z,20.98
2023-02-16T09:14:27.371Z,25.98
2023-02-16T09:16:55.774Z,20.55
2023-02-16T09:19:24.202Z,19.55
2023-02-16T09:21:52.821Z,22.45
2023-02-16T09:24:22.744Z,17.63
2023-02-16T09:26:51.090Z,18.38
2023-02-16T09:29:19.748Z,18.65
2023-02-16T09:31:48.531Z,17.45
2023-02-16T09:34:21.036Z,16.60
2023-02-16T09:36:49.796Z,19.05
2023-02-16T09:39:19.499Z,20.17
2023-02-16T09:42:00.206Z,22.42
2023-02-16T09:45:04.503Z,22.85
2023-02-16T09:47:36.587Z,24.55
2023-02-16T09:50:14.158Z,17.00
2023-02-16T09:53:04.586Z,19.08
2023-02-16T09:55:58.901Z,20.50
2023-02-16T09:59:10.615Z,22.08
2023-02-16T10:02:32.470Z,20.17
2023-02-16T10:05:19.243Z,17.52
2023-02-16T10:08:06.531Z,21.00
2023-02-16T10:10:49.419Z,18.60
2023-02-16T10:13:20.912Z,15.50
2023-02-16T10:15:53.596Z,14.23
2023-02-16T10:18:31.707Z,13.68
2023-02-16T10:21:04.331Z,14.48
2023-02-16T10:23:38.884Z,15.00
2023-02-16T10:26:14.925Z,15.68
2023-02-16T10:28:53.823Z,16.25
2023-02-16T10:31:25.168Z,16.58
2023-02-16T10:34:02.198Z,16.13
2023-02-16T10:36:42.114Z,26.00
2023-02-16T10:39:34.629Z,23.92
2023-02-16T10:42:13.626Z,21.70
2023-02-16T10:44:55.416Z,30.05
2023-02-16T10:47:34.440Z,27.75
2023-02-16T10:50:03.551Z,25.80
2023-02-16T10:52:36.878Z,19.88
2023-02-16T10:55:05.341Z,22.83
2023-02-16T10:57:34.347Z,19.30
2023-02-16T11:00:09.035Z,22.60
2023-02-16T11:02:41.805Z,18.05
2023-02-16T11:05:28.546Z,20.70
2023-02-16T11:07:58.941Z,17.63
2023-02-16T11:10:44.334Z,13.57
2023-02-16T11:13:34.677Z,13.65
2023-02-16T11:16:10.913Z,14.27
2023-02-16T11:18:44.934Z,14.35
2023-02-16T11:21:14.172Z,16.65
2023-02-16T11:23:44.542Z,16.27
2023-02-16T11:26:12.899Z,12.38
2023-02-16T11:28:50.114Z,13.00
2023-02-16T11:31:23.818Z,12.98
2023-02-16T11:34:09.210Z,14.93
2023-02-16T11:36:48.257Z,13.52
2023-02-16T11:39:23.439Z,13.20
2023-02-16T11:41:58.256Z,14.85
2023-02-16T11:44:38.185Z,12.77
2023-02-16T11:47:25.859Z,12.80
2023-02-16T11:50:26.522Z,11.82
2023-02-16T11:53:13.934Z,11.18
2023-02-16T11:55:50.683Z,11.13
2023-02-16T11:58:26.036Z,11.35
2023-02-16T12:01:00.951Z,12.88
2023-02-16T12:03:34.082Z,13.35
2023-02-16T12:06:13.417Z,12.10
2023-02-16T12:09:19.888Z,12.40
2023-02-16T12:12:03.844Z,9.20
2023-02-16T12:14:39.363Z,10.70
2023-02-16T12:17:35.113Z,11.10
2023-02-16T12:20:24.299Z,7.75
2023-02-16T12:23:04.232Z,9.35
2023-02-16T12:25:43.157Z,11.98
2023-02-16T12:28:25.750Z,10.35
2023-02-16T12:31:23.680Z,9.48
2023-02-16T12:34:13.780Z,8.82
2023-02-16T12:36:59.620Z,8.02
2023-02-16T12:39:39.970Z,11.02
2023-02-16T12:42:40.437Z,11.38
2023-02-16T12:45:20.239Z,11.75
2023-02-16T12:47:53.280Z,12.48
2023-02-16T12:50:31.547Z,10.85
2023-02-16T12:53:22.846Z,11.82
2023-02-16T12:56:02.579Z,10.60
2023-02-16T12:58:44.670Z,8.63
2023-02-16T13:01:18.082Z,10.30
2023-02-16T13:03:53.058Z,11.13
2023-02-16T13:06:47.483Z,8.68
2023-02-16T13:09:52.173Z,10.80
2023-02-16T13:12:45.398Z,9.88
2023-02-16T13:15:15.888Z,10.13
2023-02-16T13:18:22.059Z,8.95
2023-02-16T13:21:00.091Z,8.15
2023-02-16T13:23:34.730Z,8.60
2023-02-16T13:26:22.042Z,6.55
2023-02-16T13:29:27.339Z,7.65
2023-02-16T13:32:29.321Z,7.90
2023-02-16T13:35:22.600Z,7.30
2023-02-16T13:38:41.791Z,7.40
2023-02-16T13:41:50.375Z,7.50
2023-02-16T13:44:24.946Z,6.35
2023-02-16T13:46:54.802Z,7.28
2023-02-16T13:49:29.242Z,8.30
2023-02-16T13:51:58.653Z,9.77
2023-02-16T13:54:32.307Z,9.10
2023-02-16T13:57:04.929Z,9.27
2023-02-16T13:59:39.469Z,9.50
2023-02-16T14:02:13.548Z,10.32
2023-02-16T14:04:42.079Z,12.20
2023-02-16T14:07:39.078Z,11.52
2023-02-16T14:10:13.601Z,9.77
2023-02-16T14:12:42.824Z,9.52
2023-02-16T14:15:22.268Z,10.20
2023-02-16T14:17:50.766Z,11.85
2023-02-16T14:20:19.199Z,14.45
2023-02-16T14:22:52.144Z,11.70
2023-02-16T14:25:23.530Z,14.20
2023-02-16T14:27:55.018Z,13.48
2023-02-16T14:30:44.959Z,14.10
2023-02-16T14:33:18.978Z,20.13
2023-02-16T14:36:02.398Z,20.15
2023-02-16T14:38:34.527Z,19.80
2023-02-16T14:41:08.897Z,23.88
2023-02-16T14:43:48.956Z,31.98
2023-02-16T14:46:48.166Z,33.00
2023-02-16T14:49:34.921Z,27.58
2023-02-16T14:52:24.580Z,23.90
2023-02-16T14:55:12.190Z,24.27
2023-02-16T14:58:11.876Z,24.08
2023-02-16T15:01:15.410Z,23.20
2023-02-16T15:03:54.488Z,20.63
2023-02-16T15:06:39.464Z,16.73
2023-02-16T15:09:25.866Z,14.60
2023-02-16T15:12:15.219Z,15.52
2023-02-16T15:14:47.683Z,14.18
2023-02-16T15:17:36.439Z,16.40
2023-02-16T15:20:22.452Z,19.08
2023-02-16T15:22:53.100Z,15.15
2023-02-16T15:25:26.471Z,16.55
2023-02-16T15:27:59.834Z,14.82
2023-02-16T15:30:40.373Z,16.35
2023-02-16T15:33:23.823Z,20.52
2023-02-16T15:36:01.620Z,15.32
2023-02-16T15:38:38.956Z,19.52
2023-02-16T15:41:10.445Z,16.75
2023-02-16T15:43:50.919Z,16.40
2023-02-16T15:46:44.451Z,15.13
2023-02-16T15:49:14.159Z,16.52
2023-02-16T15:51:43.950Z,15.40
2023-02-16T15:54:33.309Z,15.65
2023-02-16T15:57:05.018Z,15.45
2023-02-16T15:59:48.440Z,15.75
2023-02-16T16:02:42.427Z,15.90
2023-02-16T16:05:26.742Z,16.85
2023-02-16T16:07:56.690Z,18.65
2023-02-16T16:10:30.029Z,16.65
2023-02-16T16:13:02.343Z,15.98
2023-02-16T16:15:41.632Z,14.82
2023-02-16T16:18:52.261Z,15.65
2023-02-16T16:21:37.683Z,15.60
2023-02-16T16:24:08.740Z,16.75
2023-02-16T16:26:53.303Z,15.63
2023-02-16T16:29:32.635Z,15.65
2023-02-16T16:32:02.197Z,16.00
2023-02-16T16:34:41.635Z,16.67
2023-02-16T16:37:25.946Z,15.30
2023-02-16T16:40:21.436Z,15.68
2023-02-16T16:43:08.275Z,14.77
2023-02-16T16:45:43.973Z,13.85
2023-02-16T16:48:32.053Z,14.52
2023-02-16T16:51:21.878Z,13.80
2023-02-16T16:54:00.773Z,12.95
2023-02-16T16:56:30.794Z,12.37
2023-02-16T16:59:00.158Z,12.90
2023-02-16T17:01:29.893Z,12.07
2023-02-16T17:03:58.649Z,12.40
2023-02-16T17:06:27.769Z,12.60
2023-02-16T17:08:56.208Z,9.93
2023-02-16T17:11:39.274Z,10.33
2023-02-16T17:14:15.204Z,9.93
2023-02-16T17:16:46.206Z,9.97
2023-02-16T17:19:16.391Z,9.97
2023-02-16T17:21:45.422Z,10.23
2023-02-16T17:24:14.582Z,11.10
2023-02-16T17:26:43.480Z,10.77
2023-02-16T17:29:11.920Z,11.03
2023-02-16T17:31:40.339Z,11.33
2023-02-16T17:34:09.521Z,11.90
2023-02-16T17:36:39.555Z,10.87
2023-02-16T17:39:09.201Z,10.70
2023-02-16T17:41:37.604Z,10.23
2023-02-16T17:44:06.131Z,12.30
2023-02-16T17:46:34.662Z,10.17
2023-02-16T17:49:03.046Z,10.30
2023-02-16T17:51:33.016Z,10.27
2023-02-16T17:54:01.528Z,11.70
2023-02-16T17:56:29.959Z,11.73
2023-02-16T17:58:58.535Z,11.87
2023-02-16T18:01:27.029Z,12.50
2023-02-16T18:03:55.463Z,12.67
2023-02-16T18:06:29.132Z,13.43
2023-02-16T18:08:57.821Z,13.50
2023-02-16T18:11:26.435Z,13.00
2023-02-16T18:13:54.896Z,13.30
2023-02-16T18:16:27.977Z,11.47
2023-02-16T18:18:58.092Z,11.70
2023-02-16T18:21:26.743Z,12.27
2023-02-16T18:23:55.108Z,12.20
2023-02-16T18:26:24.647Z,13.03
2023-02-16T18:28:53.115Z,14.00
2023-02-16T18:31:21.777Z,14.03
2023-02-16T18:33:50.351Z,13.20
2023-02-16T18:36:19.057Z,13.20
2023-02-16T18:38:47.557Z,11.80
2023-02-16T18:41:16.045Z,12.23
2023-02-16T18:43:44.471Z,12.87
2023-02-16T18:46:12.942Z,11.33
2023-02-16T18:48:41.372Z,11.43
2023-02-16T18:51:11.794Z,11.20
2023-02-16T18:53:41.302Z,11.90
2023-02-16T18:56:12.073Z,10.97
2023-02-16T18:58:40.888Z,11.37
2023-02-16T19:01:29.031Z,11.97
2023-02-16T19:03:58.032Z,13.50
2023-02-16T19:06:26.587Z,11.80
2023-02-16T19:08:55.033Z,10.60
2023-02-16T19:11:23.615Z,10.83
2023-02-16T19:13:51.973Z,10.23
2023-02-16T19:16:20.334Z,8.40
2023-02-16T19:18:48.751Z,8.73
2023-02-16T19:21:17.141Z,9.10
2023-02-16T19:23:46.308Z,8.63
2023-02-16T19:26:17.771Z,9.60
2023-02-16T19:28:47.170Z,8.60
2023-02-16T19:31:24.674Z,7.67
2023-02-16T19:33:53.644Z,7.97
2023-02-16T19:36:23.878Z,7.27
2023-02-16T19:38:52.334Z,7.70
2023-02-16T19:41:36.305Z,6.33
2023-02-16T19:44:05.444Z,7.43
2023-02-16T19:46:34.917Z,6.70
2023-02-16T19:49:03.665Z,6.40
2023-02-16T19:51:32.299Z,6.73
2023-02-16T19:54:01.251Z,6.83
2023-02-16T19:56:29.710Z,7.57
2023-02-16T19:58:59.629Z,7.90
2023-02-16T20:01:29.810Z,7.13
2023-02-16T20:03:58.983Z,6.63
2023-02-16T20:06:39.876Z,6.47
2023-02-16T20:09:09.436Z,6.17
2023-02-16T20:11:41.101Z,7.10
2023-02-16T20:14:09.665Z,6.03
2023-02-16T20:16:38.062Z,7.13
2023-02-16T20:19:06.503Z,5.90
2023-02-16T20:21:35.474Z,6.07
2023-02-16T20:24:06.284Z,6.77
2023-02-16T20:26:37.882Z,6.50
2023-02-16T20:29:08.174Z,7.90
2023-02-16T20:31:44.150Z,7.50
2023-02-16T20:34:12.733Z,5.97
2023-02-16T20:36:41.136Z,7.03
2023-02-16T20:39:10.548Z,5.10
2023-02-16T20:41:39.588Z,4.70
2023-02-16T20:44:08.238Z,4.67
2023-02-16T20:46:37.522Z,5.30
2023-02-16T20:49:07.482Z,5.77
2023-02-16T20:51:37.626Z,5.07
2023-02-16T20:54:07.262Z,9.17
2023-02-16T20:56:35.774Z,4.50
2023-02-16T20:59:05.693Z,5.10
2023-02-16T21:01:40.686Z,4.73
2023-02-16T21:04:10.225Z,4.80
2023-02-16T21:06:39.098Z,5.57
2023-02-16T21:09:09.730Z,5.97
2023-02-16T21:11:40.029Z,5.60
2023-02-16T21:14:11.109Z,5.70
2023-02-16T21:16:41.781Z,6.40
2023-02-16T21:19:22.152Z,6.30
2023-02-16T21:21:51.605Z,5.03
2023-02-16T21:24:20.200Z,5.37
2023-02-16T21:26:50.733Z,5.47
2023-02-16T21:29:19.364Z,5.37
2023-02-16T21:31:47.881Z,5.23
2023-02-16T21:34:16.331Z,4.90
2023-02-16T21:36:45.212Z,5.77
2023-02-16T21:39:13.772Z,5.80
2023-02-16T21:41:42.152Z,5.40
2023-02-16T21:44:16.814Z,6.27
2023-02-16T21:46:49.710Z,8.90
2023-02-16T21:49:21.759Z,8.10
2023-02-16T21:51:50.235Z,5.90
2023-02-16T21:54:40.176Z,5.40
2023-02-16T21:57:08.543Z,5.60
2023-02-16T21:59:36.915Z,5.90
2023-02-16T22:02:05.360Z,4.73
2023-02-16T22:04:33.720Z,5.40
2023-02-16T22:07:02.080Z,5.63
2023-02-16T22:09:30.489Z,5.40
2023-02-16T22:11:58.848Z,4.90
2023-02-16T22:14:27.753Z,4.97
2023-02-16T22:16:56.168Z,5.60
2023-02-16T22:19:24.642Z,5.60
2023-02-16T22:21:53.080Z,5.00
2023-02-16T22:24:21.522Z,4.70
2023-02-16T22:26:51.170Z,5.93
2023-02-16T22:29:19.859Z,5.23
2023-02-16T22:31:50.285Z,4.63
2023-02-16T22:34:21.967Z,4.47
2023-02-16T22:36:50.635Z,4.90
2023-02-16T22:39:20.381Z,4.30
2023-02-16T22:41:51.730Z,3.93
2023-02-16T22:44:20.148Z,4.20
2023-02-16T22:46:48.711Z,3.40
2023-02-16T22:49:17.124Z,3.93
2023-02-16T22:51:45.515Z,3.50
2023-02-16T22:54:17.204Z,3.40
2023-02-16T22:56:45.807Z,3.20
2023-02-16T22:59:14.432Z,3.07
2023-02-16T23:01:42.957Z,3.77
2023-02-16T23:04:17.534Z,3.40
2023-02-16T23:06:46.895Z,3.47
2023-02-16T23:09:21.073Z,3.60
2023-02-16T23:11:50.544Z,3.93
2023-02-16T23:14:20.347Z,3.83
2023-02-16T23:16:51.611Z,3.13
2023-02-16T23:19:23.040Z,3.73
2023-02-16T23:21:52.558Z,3.60
2023-02-16T23:24:23.694Z,3.87
2023-02-16T23:26:52.380Z,3.70
2023-02-16T23:29:21.156Z,3.27
2023-02-16T23:31:49.759Z,3.07
2023-02-16T23:34:18.807Z,2.70
2023-02-16T23:36:47.248Z,2.90
2023-02-16T23:39:18.451Z,2.97
2023-02-16T23:41:47.162Z,3.40
2023-02-16T23:44:16.155Z,3.30
2023-02-16T23:46:44.745Z,2.93
2023-02-16T23:49:13.202Z,2.53
2023-02-16T23:51:41.539Z,2.20
2023-02-16T23:54:12.244Z,2.70
2023-02-16T23:56:42.060Z,2.77
2023-02-16T23:59:10.605Z,1.80
